createdAt,value
2022-08-16T00:02:30.693Z,22.80
2022-08-16T00:05:00.083Z,22.80
2022-08-16T00:07:29.089Z,22.90
2022-08-16T00:09:57.900Z,22.90
2022-08-16T00:12:27.198Z,22.90
2022-08-16T00:14:56.873Z,23.00
2022-08-16T00:17:25.402Z,23.00
2022-08-16T00:19:55.161Z,23.00
2022-08-16T00:22:24.876Z,23.00
2022-08-16T00:24:53.481Z,23.00
2022-08-16T00:27:22.535Z,23.00
2022-08-16T00:30:08.691Z,23.00
2022-08-16T00:32:38.358Z,23.00
2022-08-16T00:35:13.301Z,23.00
2022-08-16T00:37:58.007Z,23.00
2022-08-16T00:40:50.726Z,22.90
2022-08-16T00:43:42.655Z,22.90
2022-08-16T00:46:35.402Z,22.90
2022-08-16T00:49:17.638Z,22.90
2022-08-16T00:51:46.594Z,22.80
2022-08-16T00:54:22.601Z,22.90
2022-08-16T00:56:57.494Z,22.90
2022-08-16T00:59:28.323Z,22.80
2022-08-16T01:01:56.375Z,22.80
2022-08-16T01:04:29.878Z,22.80
2022-08-16T01:07:01.635Z,22.80
2022-08-16T01:09:33.084Z,22.80
2022-08-16T01:12:01.979Z,22.80
2022-08-16T01:14:34.966Z,22.80
2022-08-16T01:17:03.763Z,22.80
2022-08-16T01:19:42.813Z,22.80
2022-08-16T01:22:55.886Z,22.90
2022-08-16T01:25:33.857Z,22.80
2022-08-16T01:28:04.667Z,22.80
2022-08-16T01:30:39.665Z,22.80
2022-08-16T01:33:14.980Z,22.80
2022-08-16T01:36:11.709Z,22.70
2022-08-16T01:38:49.217Z,22.70
2022-08-16T01:41:29.806Z,22.60
2022-08-16T01:44:01.070Z,22.60
2022-08-16T01:46:40.054Z,22.50
2022-08-16T01:49:10.177Z,22.50
2022-08-16T01:51:39.478Z,22.40
2022-08-16T01:54:07.377Z,22.40
2022-08-16T01:56:35.147Z,22.50
2022-08-16T01:59:04.552Z,22.50
2022-08-16T02:01:32.811Z,22.50
2022-08-16T02:04:10.590Z,22.50
2022-08-16T02:06:46.010Z,22.40
2022-08-16T02:09:14.892Z,22.40
2022-08-16T02:11:53.213Z,22.40
2022-08-16T02:14:26.654Z,22.40
2022-08-16T02:16:58.566Z,22.40
2022-08-16T02:19:58.486Z,22.40
2022-08-16T02:22:34.479Z,22.40
2022-08-16T02:25:05.364Z,22.50
2022-08-16T02:27:32.533Z,22.40
2022-08-16T02:30:05.339Z,22.40
2022-08-16T02:33:02.564Z,22.40
2022-08-16T02:35:23.113Z,22.30
2022-08-16T02:37:52.607Z,22.40
2022-08-16T02:40:22.760Z,22.30
2022-08-16T02:42:51.226Z,22.30
2022-08-16T02:45:21.280Z,22.30
2022-08-16T02:48:01.449Z,22.30
2022-08-16T02:50:53.707Z,22.20
2022-08-16T02:53:24.039Z,22.20
2022-08-16T02:55:51.516Z,22.10
2022-08-16T02:58:20.494Z,22.10
2022-08-16T03:00:53.272Z,22.10
2022-08-16T03:03:24.753Z,22.00
2022-08-16T03:05:53.252Z,22.00
2022-08-16T03:08:31.008Z,22.00
2022-08-16T03:11:16.597Z,22.00
2022-08-16T03:13:51.313Z,21.90
2022-08-16T03:16:37.793Z,21.90
2022-08-16T03:19:06.752Z,21.90
2022-08-16T03:21:38.073Z,21.80
2022-08-16T03:24:28.130Z,21.80
2022-08-16T03:26:57.835Z,21.90
2022-08-16T03:29:27.378Z,21.80
2022-08-16T03:31:59.451Z,21.80
2022-08-16T03:34:27.658Z,21.80
2022-08-16T03:36:55.000Z,21.80
2022-08-16T03:39:22.481Z,21.80
2022-08-16T03:41:51.311Z,21.80
2022-08-16T03:44:43.487Z,21.70
2022-08-16T03:47:11.936Z,21.70
2022-08-16T03:49:38.735Z,21.70
2022-08-16T03:52:07.136Z,21.70
2022-08-16T03:54:35.918Z,21.70
2022-08-16T03:57:04.951Z,21.80
2022-08-16T03:59:32.032Z,21.80
2022-08-16T04:02:00.952Z,21.80
2022-08-16T04:04:32.736Z,21.80
2022-08-16T04:07:02.849Z,21.80
2022-08-16T04:09:35.459Z,21.80
2022-08-16T04:12:10.821Z,21.80
2022-08-16T04:14:46.888Z,21.90
2022-08-16T04:17:16.144Z,21.90
2022-08-16T04:19:47.354Z,21.90
2022-08-16T04:22:19.610Z,21.90
2022-08-16T04:24:54.144Z,21.90
2022-08-16T04:27:24.604Z,21.90
2022-08-16T04:30:03.092Z,22.00
2022-08-16T04:32:30.751Z,22.00
2022-08-16T04:34:57.503Z,22.00
2022-08-16T04:37:24.324Z,22.00
2022-08-16T04:39:57.060Z,22.00
2022-08-16T04:42:26.136Z,22.00
2022-08-16T04:44:57.722Z,22.00
2022-08-16T04:47:31.454Z,22.00
2022-08-16T04:50:01.357Z,22.00
2022-08-16T04:52:33.819Z,22.00
2022-08-16T04:55:07.672Z,22.00
2022-08-16T04:57:35.017Z,22.10
2022-08-16T05:00:31.270Z,22.20
2022-08-16T05:02:54.837Z,22.20
2022-08-16T05:05:23.081Z,22.20
2022-08-16T05:07:59.578Z,22.30
2022-08-16T05:10:28.517Z,22.30
2022-08-16T05:12:57.999Z,22.30
2022-08-16T05:15:25.243Z,22.30
2022-08-16T05:17:58.705Z,22.40
2022-08-16T05:20:35.559Z,22.50
2022-08-16T05:23:13.668Z,22.50
2022-08-16T05:25:48.423Z,22.40
2022-08-16T05:28:16.857Z,22.40
2022-08-16T05:30:43.639Z,22.40
2022-08-16T05:33:16.351Z,22.50
2022-08-16T05:35:43.425Z,22.50
2022-08-16T05:38:30.969Z,22.50
2022-08-16T05:41:00.011Z,22.50
2022-08-16T05:43:28.145Z,22.60
2022-08-16T05:46:00.393Z,22.60
2022-08-16T05:48:27.332Z,22.70
2022-08-16T05:50:54.148Z,22.70
2022-08-16T05:53:24.151Z,22.80
2022-08-16T05:55:51.863Z,23.00
2022-08-16T05:58:31.800Z,23.10
2022-08-16T06:01:00.077Z,23.20
2022-08-16T06:11:06.336Z,23.40
2022-08-16T06:13:42.036Z,23.80
2022-08-16T06:16:09.473Z,23.70
2022-08-16T06:18:45.587Z,23.70
2022-08-16T06:21:13.385Z,23.60
2022-08-16T06:23:54.276Z,23.50
2022-08-16T06:26:22.454Z,23.50
2022-08-16T06:28:49.549Z,23.50
2022-08-16T06:31:19.371Z,23.50
2022-08-16T06:33:51.923Z,23.50
2022-08-16T06:36:20.976Z,23.60
2022-08-16T06:38:55.333Z,23.70
2022-08-16T06:41:24.271Z,23.80
2022-08-16T06:43:55.009Z,23.90
2022-08-16T06:46:35.019Z,24.10
2022-08-16T06:49:10.825Z,24.20
2022-08-16T06:51:46.571Z,24.30
2022-08-16T06:54:15.934Z,24.40
2022-08-16T06:56:43.438Z,24.50
2022-08-16T06:59:10.841Z,24.60
2022-08-16T07:01:46.187Z,24.70
2022-08-16T07:04:33.236Z,24.80
2022-08-16T07:07:05.989Z,25.00
2022-08-16T07:09:32.835Z,25.20
2022-08-16T07:12:03.818Z,25.40
2022-08-16T07:17:00.111Z,25.60
2022-08-16T07:19:33.692Z,28.40
2022-08-16T07:22:36.480Z,30.40
2022-08-16T07:25:05.312Z,32.80
2022-08-16T07:27:33.918Z,34.30
2022-08-16T07:30:45.248Z,35.30
2022-08-16T07:32:55.522Z,35.90
2022-08-16T07:35:24.967Z,36.90
2022-08-16T07:37:52.117Z,37.20
2022-08-16T07:40:19.077Z,37.50
2022-08-16T07:42:52.304Z,37.50
2022-08-16T07:45:19.848Z,38.40
2022-08-16T07:47:46.621Z,38.70
2022-08-16T07:50:55.906Z,39.20
2022-08-16T07:53:05.224Z,39.60
2022-08-16T07:55:45.735Z,39.90
2022-08-16T07:58:18.414Z,39.80
2022-08-16T08:01:01.720Z,39.70
2022-08-16T08:03:39.310Z,39.30
2022-08-16T08:06:10.489Z,39.60
2022-08-16T08:08:51.354Z,40.00
2022-08-16T08:11:23.491Z,40.00
2022-08-16T08:13:53.681Z,40.30
2022-08-16T08:16:21.791Z,40.30
2022-08-16T08:21:59.950Z,40.40
2022-08-16T08:24:17.650Z,41.30
2022-08-16T08:26:44.714Z,41.60
2022-08-16T08:29:23.186Z,41.60
2022-08-16T08:32:57.038Z,41.80
2022-08-16T08:34:51.801Z,41.90
2022-08-16T08:37:18.997Z,42.10
2022-08-16T08:39:53.567Z,42.00
2022-08-16T08:42:25.163Z,42.00
2022-08-16T08:44:53.816Z,42.30
2022-08-16T08:47:21.145Z,42.40
2022-08-16T08:49:55.804Z,42.30
2022-08-16T08:52:35.219Z,42.50
2022-08-16T08:55:10.399Z,42.80
2022-08-16T08:57:43.056Z,42.80
2022-08-16T09:00:13.631Z,42.80
2022-08-16T09:02:42.996Z,42.70
2022-08-16T09:05:16.207Z,42.50
2022-08-16T09:08:02.030Z,42.20
2022-08-16T09:10:32.462Z,42.40
2022-08-16T09:13:00.995Z,42.30
2022-08-16T09:15:33.223Z,42.50
2022-08-16T09:18:02.123Z,42.80
2022-08-16T09:20:59.471Z,43.20
2022-08-16T09:23:29.061Z,43.10
2022-08-16T09:25:55.842Z,43.10
2022-08-16T09:29:06.804Z,43.10
2022-08-16T09:31:10.987Z,42.80
2022-08-16T09:33:39.312Z,42.70
2022-08-16T09:36:12.096Z,42.50
2022-08-16T09:39:00.026Z,42.70
2022-08-16T09:41:28.115Z,43.00
2022-08-16T09:44:00.720Z,43.20
2022-08-16T09:46:48.955Z,43.10
2022-08-16T09:49:19.767Z,43.10
2022-08-16T09:51:48.382Z,43.20
2022-08-16T09:54:20.902Z,43.30
2022-08-16T09:56:53.408Z,43.40
2022-08-16T09:59:23.863Z,43.30
2022-08-16T10:01:53.467Z,43.10
2022-08-16T10:04:31.112Z,43.00
2022-08-16T10:07:15.456Z,43.00
2022-08-16T10:09:53.886Z,43.00
2022-08-16T10:12:43.655Z,42.90
2022-08-16T10:15:22.843Z,42.70
2022-08-16T10:18:01.174Z,42.60
2022-08-16T10:20:34.517Z,42.50
2022-08-16T10:23:17.309Z,42.20
2022-08-16T10:27:16.382Z,42.10
2022-08-16T10:28:40.107Z,41.90
2022-08-16T10:31:14.441Z,41.60
2022-08-16T10:33:44.619Z,41.00
2022-08-16T10:36:38.800Z,40.30
2022-08-16T10:39:00.767Z,39.50
2022-08-16T10:41:28.690Z,38.50
2022-08-16T10:43:56.663Z,37.20
2022-08-16T10:46:40.011Z,36.90
2022-08-16T10:49:10.984Z,36.20
2022-08-16T10:52:01.825Z,35.50
2022-08-16T10:54:29.331Z,35.40
2022-08-16T10:56:57.544Z,35.00
2022-08-16T10:59:32.659Z,34.90
2022-08-16T11:05:10.682Z,34.30
2022-08-16T11:07:55.197Z,34.20
2022-08-16T11:16:26.585Z,33.60
2022-08-16T11:19:05.906Z,33.50
2022-08-16T11:24:41.945Z,33.50
2022-08-16T11:27:21.477Z,33.20
2022-08-16T11:29:54.814Z,33.20
2022-08-16T11:32:31.025Z,33.10
2022-08-16T11:35:10.578Z,33.10
2022-08-16T11:40:37.837Z,32.90
2022-08-16T11:43:06.631Z,32.80
2022-08-16T11:45:36.754Z,32.80
2022-08-16T11:48:04.736Z,32.70
2022-08-16T11:50:35.371Z,32.70
2022-08-16T11:53:03.968Z,32.70
2022-08-16T11:55:32.141Z,32.60
2022-08-16T11:58:00.362Z,32.50
2022-08-16T12:00:42.653Z,32.50
2022-08-16T12:03:16.276Z,32.50
2022-08-16T12:05:45.401Z,32.50
2022-08-16T12:08:12.660Z,32.50
2022-08-16T12:10:43.116Z,32.40
2022-08-16T12:13:11.747Z,32.40
2022-08-16T12:15:38.791Z,32.40
2022-08-16T12:18:07.026Z,32.30
2022-08-16T12:20:40.315Z,32.30
2022-08-16T12:23:07.526Z,32.10
2022-08-16T12:25:35.631Z,32.00
2022-08-16T12:28:07.182Z,31.90
2022-08-16T12:30:39.112Z,31.90
2022-08-16T12:33:07.497Z,31.90
2022-08-16T12:35:36.885Z,31.80
2022-08-16T12:38:35.687Z,31.80
2022-08-16T12:40:53.104Z,31.80
2022-08-16T12:48:42.780Z,31.50
2022-08-16T12:53:51.684Z,31.60
2022-08-16T12:56:20.786Z,31.60
2022-08-16T12:58:51.973Z,31.60
2022-08-16T13:01:26.896Z,31.60
2022-08-16T13:04:20.404Z,31.60
2022-08-16T13:06:45.517Z,31.60
2022-08-16T13:29:57.435Z,31.60
2022-08-16T13:32:40.237Z,31.30
2022-08-16T13:35:07.976Z,31.20
2022-08-16T13:37:41.269Z,31.20
2022-08-16T13:40:09.744Z,31.20
2022-08-16T13:42:47.519Z,31.20
2022-08-16T13:45:15.991Z,31.20
2022-08-16T13:47:43.074Z,31.20
2022-08-16T13:50:11.728Z,31.20
2022-08-16T13:52:39.801Z,31.10
2022-08-16T13:55:17.487Z,31.10
2022-08-16T13:58:35.634Z,31.10
2022-08-16T14:00:31.885Z,31.10
2022-08-16T14:02:59.260Z,31.00
2022-08-16T14:05:26.644Z,31.00
2022-08-16T14:07:54.536Z,31.00
2022-08-16T14:10:21.773Z,30.90
2022-08-16T14:12:48.706Z,30.80
2022-08-16T14:15:16.208Z,30.80
2022-08-16T14:18:15.932Z,30.70
2022-08-16T14:20:30.137Z,30.60
2022-08-16T14:25:24.790Z,30.50
2022-08-16T14:30:22.783Z,30.40
2022-08-16T14:32:51.314Z,30.30
2022-08-16T14:35:22.469Z,30.10
2022-08-16T14:40:31.499Z,30.00
2022-08-16T14:42:58.645Z,30.00
2022-08-16T14:50:28.317Z,29.90
2022-08-16T14:53:09.606Z,29.80
2022-08-16T14:55:38.124Z,29.70
2022-08-16T14:58:10.431Z,29.70
2022-08-16T15:00:47.745Z,29.70
2022-08-16T15:03:18.461Z,29.60
2022-08-16T15:05:48.423Z,29.50
2022-08-16T15:08:17.727Z,29.40
2022-08-16T15:10:47.487Z,29.30
2022-08-16T15:13:15.066Z,29.30
2022-08-16T15:15:43.776Z,29.30
2022-08-16T15:18:12.162Z,29.20
2022-08-16T15:23:10.026Z,29.10
2022-08-16T15:25:47.366Z,29.00
2022-08-16T15:28:31.825Z,28.90
2022-08-16T15:31:03.980Z,28.90
2022-08-16T15:33:34.545Z,28.80
2022-08-16T15:36:03.352Z,28.80
2022-08-16T15:39:02.134Z,28.80
2022-08-16T15:41:30.876Z,28.70
2022-08-16T15:44:05.243Z,28.70
2022-08-16T15:46:56.312Z,28.50
2022-08-16T15:49:37.253Z,28.50
2022-08-16T15:52:16.288Z,28.50
2022-08-16T15:54:53.486Z,28.40
2022-08-16T15:57:27.298Z,28.40
2022-08-16T15:59:55.943Z,28.30
2022-08-16T16:02:33.464Z,28.20
2022-08-16T16:05:07.408Z,28.20
2022-08-16T16:07:39.424Z,28.20
2022-08-16T16:10:13.460Z,28.10
2022-08-16T16:12:51.429Z,28.00
2022-08-16T16:15:24.530Z,28.00
2022-08-16T16:17:52.437Z,27.90
2022-08-16T16:20:21.432Z,27.90
2022-08-16T16:22:49.911Z,27.80
2022-08-16T16:25:18.672Z,27.90
2022-08-16T16:27:46.683Z,27.80
2022-08-16T16:30:33.591Z,27.70
2022-08-16T16:33:11.492Z,27.70
2022-08-16T16:35:46.941Z,27.70
2022-08-16T16:40:54.002Z,27.60
2022-08-16T16:43:25.369Z,27.60
2022-08-16T16:45:52.998Z,27.50
2022-08-16T16:48:19.876Z,27.40
2022-08-16T16:50:47.852Z,27.40
